sensor_id;sensor_type;location;lat;lon;timestamp;P1;durP1;ratioP1;P2;durP2;ratioP2
29570;SDS011;16814;52.118;11.436;2022-12-07T00:01:19;37.97;;;20.88;;
29570;SDS011;16814;52.118;11.436;2022-12-07T00:03:51;39.33;;;21.45;;
29570;SDS011;16814;52.118;11.436;2022-12-07T00:06:18;40.42;;;21.77;;
29570;SDS011;16814;52.118;11.436;2022-12-07T00:08:44;38.80;;;21.03;;
29570;SDS011;16814;52.118;11.436;2022-12-07T00:11:15;39.20;;;21.90;;
29570;SDS011;16814;52.118;11.436;2022-12-07T00:13:42;37.97;;;21.20;;
29570;SDS011;16814;52.118;11.436;2022-12-07T00:16:15;42.65;;;21.27;;
29570;SDS011;16814;52.118;11.436;2022-12-07T00:18:43;42.75;;;21.42;;
29570;SDS011;16814;52.118;11.436;2022-12-07T00:21:20;41.20;;;21.70;;
29570;SDS011;16814;52.118;11.436;2022-12-07T00:23:47;39.05;;;20.38;;
29570;SDS011;16814;52.118;11.436;2022-12-07T00:26:18;37.22;;;21.17;;
29570;SDS011;16814;52.118;11.436;2022-12-07T00:28:58;38.22;;;19.58;;
29570;SDS011;16814;52.118;11.436;2022-12-07T00:31:26;36.85;;;20.45;;
29570;SDS011;16814;52.118;11.436;2022-12-07T00:33:54;38.88;;;20.35;;
29570;SDS011;16814;52.118;11.436;2022-12-07T00:36:22;37.07;;;20.43;;
29570;SDS011;16814;52.118;11.436;2022-12-07T00:38:49;34.67;;;19.05;;
29570;SDS011;16814;52.118;11.436;2022-12-07T00:41:15;32.23;;;19.23;;
29570;SDS011;16814;52.118;11.436;2022-12-07T00:43:45;34.45;;;19.30;;
29570;SDS011;16814;52.118;11.436;2022-12-07T00:46:13;35.40;;;19.58;;
29570;SDS011;16814;52.118;11.436;2022-12-07T00:48:39;36.28;;;19.92;;
29570;SDS011;16814;52.118;11.436;2022-12-07T00:51:05;35.50;;;19.48;;
29570;SDS011;16814;52.118;11.436;2022-12-07T00:53:35;32.25;;;18.73;;
29570;SDS011;16814;52.118;11.436;2022-12-07T00:56:44;36.58;;;19.83;;
29570;SDS011;16814;52.118;11.436;2022-12-07T00:58:55;34.92;;;19.65;;
29570;SDS011;16814;52.118;11.436;2022-12-07T01:01:22;32.97;;;18.90;;
29570;SDS011;16814;52.118;11.436;2022-12-07T01:03:49;34.20;;;18.67;;
29570;SDS011;16814;52.118;11.436;2022-12-07T01:06:15;36.60;;;19.45;;
29570;SDS011;16814;52.118;11.436;2022-12-07T01:08:48;29.05;;;17.48;;
29570;SDS011;16814;52.118;11.436;2022-12-07T01:11:15;31.92;;;19.10;;
29570;SDS011;16814;52.118;11.436;2022-12-07T01:13:42;35.83;;;19.50;;
29570;SDS011;16814;52.118;11.436;2022-12-07T01:16:10;34.03;;;19.80;;
29570;SDS011;16814;52.118;11.436;2022-12-07T01:18:40;34.60;;;19.85;;
29570;SDS011;16814;52.118;11.436;2022-12-07T01:21:08;35.67;;;19.38;;
29570;SDS011;16814;52.118;11.436;2022-12-07T01:23:38;35.88;;;20.23;;
29570;SDS011;16814;52.118;11.436;2022-12-07T01:26:05;35.45;;;19.88;;
29570;SDS011;16814;52.118;11.436;2022-12-07T01:28:33;32.08;;;19.08;;
29570;SDS011;16814;52.118;11.436;2022-12-07T01:31:00;34.47;;;20.23;;
29570;SDS011;16814;52.118;11.436;2022-12-07T01:33:28;39.17;;;20.70;;
29570;SDS011;16814;52.118;11.436;2022-12-07T01:36:00;34.28;;;20.33;;
29570;SDS011;16814;52.118;11.436;2022-12-07T01:38:41;34.47;;;20.35;;
29570;SDS011;16814;52.118;11.436;2022-12-07T01:41:07;35.90;;;19.65;;
29570;SDS011;16814;52.118;11.436;2022-12-07T01:43:35;36.42;;;20.75;;
29570;SDS011;16814;52.118;11.436;2022-12-07T01:46:01;34.63;;;19.13;;
29570;SDS011;16814;52.118;11.436;2022-12-07T01:48:33;33.23;;;19.60;;
29570;SDS011;16814;52.118;11.436;2022-12-07T01:51:05;36.78;;;20.48;;
29570;SDS011;16814;52.118;11.436;2022-12-07T01:53:36;33.30;;;19.60;;
29570;SDS011;16814;52.118;11.436;2022-12-07T01:56:07;36.30;;;20.13;;
29570;SDS011;16814;52.118;11.436;2022-12-07T01:58:36;37.30;;;20.23;;
29570;SDS011;16814;52.118;11.436;2022-12-07T02:01:02;33.03;;;19.38;;
29570;SDS011;16814;52.118;11.436;2022-12-07T02:03:35;34.10;;;19.73;;
29570;SDS011;16814;52.118;11.436;2022-12-07T02:06:05;32.85;;;18.77;;
29570;SDS011;16814;52.118;11.436;2022-12-07T02:08:31;32.55;;;19.35;;
29570;SDS011;16814;52.118;11.436;2022-12-07T02:10:57;35.78;;;19.98;;
29570;SDS011;16814;52.118;11.436;2022-12-07T02:13:24;36.27;;;19.90;;
29570;SDS011;16814;52.118;11.436;2022-12-07T02:21:32;38.67;;;21.67;;
29570;SDS011;16814;52.118;11.436;2022-12-07T02:29:27;42.50;;;22.15;;
29570;SDS011;16814;52.118;11.436;2022-12-07T02:32:28;44.58;;;22.40;;
29570;SDS011;16814;52.118;11.436;2022-12-07T02:35:16;45.43;;;23.07;;
29570;SDS011;16814;52.118;11.436;2022-12-07T02:43:16;45.22;;;22.90;;
29570;SDS011;16814;52.118;11.436;2022-12-07T02:45:48;43.20;;;22.83;;
29570;SDS011;16814;52.118;11.436;2022-12-07T02:48:16;44.53;;;23.27;;
29570;SDS011;16814;52.118;11.436;2022-12-07T02:50:44;42.10;;;22.40;;
29570;SDS011;16814;52.118;11.436;2022-12-07T03:04:45;39.50;;;21.27;;
29570;SDS011;16814;52.118;11.436;2022-12-07T03:10:24;43.70;;;22.95;;
29570;SDS011;16814;52.118;11.436;2022-12-07T03:15:49;38.55;;;20.23;;
29570;SDS011;16814;52.118;11.436;2022-12-07T03:18:29;38.58;;;20.27;;
29570;SDS011;16814;52.118;11.436;2022-12-07T03:21:03;41.25;;;21.80;;
29570;SDS011;16814;52.118;11.436;2022-12-07T03:23:34;36.92;;;21.52;;
29570;SDS011;16814;52.118;11.436;2022-12-07T03:26:02;37.58;;;20.92;;
29570;SDS011;16814;52.118;11.436;2022-12-07T03:28:32;39.83;;;21.10;;
29570;SDS011;16814;52.118;11.436;2022-12-07T03:31:22;38.53;;;20.83;;
29570;SDS011;16814;52.118;11.436;2022-12-07T03:33:58;37.28;;;20.55;;
29570;SDS011;16814;52.118;11.436;2022-12-07T03:36:40;38.13;;;21.23;;
29570;SDS011;16814;52.118;11.436;2022-12-07T03:39:26;37.30;;;21.08;;
29570;SDS011;16814;52.118;11.436;2022-12-07T03:42:22;37.25;;;21.25;;
29570;SDS011;16814;52.118;11.436;2022-12-07T03:44:49;39.00;;;21.00;;
29570;SDS011;16814;52.118;11.436;2022-12-07T03:47:16;36.03;;;21.17;;
29570;SDS011;16814;52.118;11.436;2022-12-07T03:50:04;35.90;;;22.08;;
29570;SDS011;16814;52.118;11.436;2022-12-07T03:53:00;40.00;;;22.38;;
29570;SDS011;16814;52.118;11.436;2022-12-07T03:55:31;40.25;;;22.33;;
29570;SDS011;16814;52.118;11.436;2022-12-07T03:58:05;41.08;;;23.75;;
29570;SDS011;16814;52.118;11.436;2022-12-07T04:00:33;38.80;;;22.45;;
29570;SDS011;16814;52.118;11.436;2022-12-07T04:02:59;37.33;;;22.35;;
29570;SDS011;16814;52.118;11.436;2022-12-07T04:05:26;43.53;;;23.77;;
29570;SDS011;16814;52.118;11.436;2022-12-07T04:07:52;41.30;;;22.75;;
29570;SDS011;16814;52.118;11.436;2022-12-07T04:10:17;40.22;;;23.55;;
29570;SDS011;16814;52.118;11.436;2022-12-07T04:12:45;40.50;;;23.45;;
29570;SDS011;16814;52.118;11.436;2022-12-07T04:15:11;40.67;;;23.43;;
29570;SDS011;16814;52.118;11.436;2022-12-07T04:17:37;38.00;;;23.45;;
29570;SDS011;16814;52.118;11.436;2022-12-07T04:20:03;39.67;;;23.23;;
29570;SDS011;16814;52.118;11.436;2022-12-07T04:22:29;43.07;;;24.43;;
29570;SDS011;16814;52.118;11.436;2022-12-07T04:24:55;43.27;;;24.70;;
29570;SDS011;16814;52.118;11.436;2022-12-07T04:27:20;41.83;;;24.40;;
29570;SDS011;16814;52.118;11.436;2022-12-07T04:29:46;39.25;;;23.92;;
29570;SDS011;16814;52.118;11.436;2022-12-07T04:32:11;40.23;;;23.60;;
29570;SDS011;16814;52.118;11.436;2022-12-07T04:34:37;42.13;;;24.58;;
29570;SDS011;16814;52.118;11.436;2022-12-07T04:37:02;43.23;;;24.63;;
29570;SDS011;16814;52.118;11.436;2022-12-07T04:39:29;41.22;;;24.08;;
29570;SDS011;16814;52.118;11.436;2022-12-07T04:41:57;44.78;;;23.58;;
29570;SDS011;16814;52.118;11.436;2022-12-07T04:44:25;40.78;;;23.63;;
29570;SDS011;16814;52.118;11.436;2022-12-07T04:46:52;41.22;;;23.98;;
29570;SDS011;16814;52.118;11.436;2022-12-07T04:49:18;39.75;;;24.13;;
29570;SDS011;16814;52.118;11.436;2022-12-07T04:51:44;40.47;;;22.97;;
29570;SDS011;16814;52.118;11.436;2022-12-07T04:54:11;39.53;;;23.67;;
29570;SDS011;16814;52.118;11.436;2022-12-07T04:56:37;42.03;;;24.67;;
29570;SDS011;16814;52.118;11.436;2022-12-07T04:59:03;42.07;;;24.10;;
29570;SDS011;16814;52.118;11.436;2022-12-07T05:01:28;37.70;;;23.55;;
29570;SDS011;16814;52.118;11.436;2022-12-07T05:03:54;40.17;;;23.15;;
29570;SDS011;16814;52.118;11.436;2022-12-07T05:06:20;37.73;;;23.37;;
29570;SDS011;16814;52.118;11.436;2022-12-07T05:08:47;42.63;;;23.42;;
29570;SDS011;16814;52.118;11.436;2022-12-07T05:11:13;41.63;;;23.83;;
29570;SDS011;16814;52.118;11.436;2022-12-07T05:13:59;42.78;;;23.02;;
29570;SDS011;16814;52.118;11.436;2022-12-07T05:16:25;40.03;;;24.05;;
29570;SDS011;16814;52.118;11.436;2022-12-07T05:18:51;36.75;;;22.20;;
29570;SDS011;16814;52.118;11.436;2022-12-07T05:21:16;41.53;;;22.93;;
29570;SDS011;16814;52.118;11.436;2022-12-07T05:23:42;38.03;;;22.33;;
29570;SDS011;16814;52.118;11.436;2022-12-07T05:26:07;40.17;;;22.20;;
29570;SDS011;16814;52.118;11.436;2022-12-07T05:28:33;37.90;;;22.15;;
29570;SDS011;16814;52.118;11.436;2022-12-07T05:30:59;39.83;;;22.20;;
29570;SDS011;16814;52.118;11.436;2022-12-07T05:33:24;39.00;;;23.30;;
29570;SDS011;16814;52.118;11.436;2022-12-07T05:35:50;38.43;;;22.27;;
29570;SDS011;16814;52.118;11.436;2022-12-07T05:38:15;40.40;;;22.93;;
29570;SDS011;16814;52.118;11.436;2022-12-07T05:40:41;44.60;;;22.80;;
29570;SDS011;16814;52.118;11.436;2022-12-07T05:43:06;38.65;;;22.95;;
29570;SDS011;16814;52.118;11.436;2022-12-07T05:45:32;40.22;;;24.25;;
29570;SDS011;16814;52.118;11.436;2022-12-07T05:47:58;40.20;;;23.73;;
29570;SDS011;16814;52.118;11.436;2022-12-07T05:50:23;46.38;;;24.00;;
29570;SDS011;16814;52.118;11.436;2022-12-07T05:52:49;39.37;;;23.30;;
29570;SDS011;16814;52.118;11.436;2022-12-07T05:55:14;42.20;;;23.65;;
29570;SDS011;16814;52.118;11.436;2022-12-07T05:57:40;38.63;;;23.17;;
29570;SDS011;16814;52.118;11.436;2022-12-07T06:00:25;40.75;;;23.70;;
29570;SDS011;16814;52.118;11.436;2022-12-07T06:02:54;40.65;;;23.02;;
29570;SDS011;16814;52.118;11.436;2022-12-07T06:05:19;37.45;;;22.83;;
29570;SDS011;16814;52.118;11.436;2022-12-07T06:07:45;41.00;;;23.70;;
29570;SDS011;16814;52.118;11.436;2022-12-07T06:10:10;39.72;;;22.42;;
29570;SDS011;16814;52.118;11.436;2022-12-07T06:12:36;37.03;;;21.90;;
29570;SDS011;16814;52.118;11.436;2022-12-07T06:15:04;38.58;;;21.77;;
29570;SDS011;16814;52.118;11.436;2022-12-07T06:17:32;35.85;;;19.83;;
29570;SDS011;16814;52.118;11.436;2022-12-07T06:19:58;34.80;;;20.08;;
29570;SDS011;16814;52.118;11.436;2022-12-07T06:22:23;32.50;;;18.40;;
29570;SDS011;16814;52.118;11.436;2022-12-07T06:24:49;29.38;;;17.33;;
29570;SDS011;16814;52.118;11.436;2022-12-07T06:27:14;31.80;;;17.00;;
29570;SDS011;16814;52.118;11.436;2022-12-07T06:29:40;29.67;;;16.45;;
29570;SDS011;16814;52.118;11.436;2022-12-07T06:32:05;28.03;;;15.30;;
29570;SDS011;16814;52.118;11.436;2022-12-07T06:34:31;24.77;;;14.98;;
29570;SDS011;16814;52.118;11.436;2022-12-07T06:36:57;29.02;;;14.48;;
29570;SDS011;16814;52.118;11.436;2022-12-07T06:39:23;25.33;;;13.93;;
29570;SDS011;16814;52.118;11.436;2022-12-07T06:41:50;26.63;;;13.75;;
29570;SDS011;16814;52.118;11.436;2022-12-07T06:44:17;22.33;;;12.23;;
29570;SDS011;16814;52.118;11.436;2022-12-07T06:46:43;21.35;;;12.00;;
29570;SDS011;16814;52.118;11.436;2022-12-07T06:49:09;21.42;;;12.30;;
29570;SDS011;16814;52.118;11.436;2022-12-07T06:51:35;19.65;;;11.70;;
29570;SDS011;16814;52.118;11.436;2022-12-07T06:54:02;23.67;;;11.40;;
29570;SDS011;16814;52.118;11.436;2022-12-07T06:56:28;21.98;;;11.20;;
29570;SDS011;16814;52.118;11.436;2022-12-07T06:58:54;16.70;;;10.75;;
29570;SDS011;16814;52.118;11.436;2022-12-07T07:01:20;19.17;;;10.70;;
29570;SDS011;16814;52.118;11.436;2022-12-07T07:03:46;22.95;;;10.57;;
29570;SDS011;16814;52.118;11.436;2022-12-07T07:06:12;20.30;;;12.00;;
29570;SDS011;16814;52.118;11.436;2022-12-07T07:08:39;23.38;;;10.63;;
29570;SDS011;16814;52.118;11.436;2022-12-07T07:11:08;20.73;;;11.30;;
29570;SDS011;16814;52.118;11.436;2022-12-07T07:13:34;22.98;;;12.00;;
29570;SDS011;16814;52.118;11.436;2022-12-07T07:16:00;27.45;;;12.65;;
29570;SDS011;16814;52.118;11.436;2022-12-07T07:18:25;30.55;;;13.07;;
29570;SDS011;16814;52.118;11.436;2022-12-07T07:20:53;28.77;;;13.48;;
29570;SDS011;16814;52.118;11.436;2022-12-07T07:23:19;28.80;;;14.27;;
29570;SDS011;16814;52.118;11.436;2022-12-07T07:25:45;28.20;;;14.13;;
29570;SDS011;16814;52.118;11.436;2022-12-07T07:28:12;25.63;;;12.10;;
29570;SDS011;16814;52.118;11.436;2022-12-07T07:30:38;24.50;;;12.70;;
29570;SDS011;16814;52.118;11.436;2022-12-07T07:33:04;20.53;;;11.90;;
29570;SDS011;16814;52.118;11.436;2022-12-07T07:35:31;22.30;;;11.93;;
29570;SDS011;16814;52.118;11.436;2022-12-07T07:37:57;26.15;;;12.52;;
29570;SDS011;16814;52.118;11.436;2022-12-07T07:40:23;26.45;;;12.23;;
29570;SDS011;16814;52.118;11.436;2022-12-07T07:42:53;34.45;;;13.10;;
29570;SDS011;16814;52.118;11.436;2022-12-07T07:45:20;25.35;;;12.73;;
29570;SDS011;16814;52.118;11.436;2022-12-07T07:47:47;30.40;;;13.02;;
29570;SDS011;16814;52.118;11.436;2022-12-07T07:50:13;23.98;;;13.00;;
29570;SDS011;16814;52.118;11.436;2022-12-07T07:52:39;26.70;;;13.10;;
29570;SDS011;16814;52.118;11.436;2022-12-07T07:55:05;28.08;;;13.68;;
29570;SDS011;16814;52.118;11.436;2022-12-07T07:57:33;25.52;;;12.98;;
29570;SDS011;16814;52.118;11.436;2022-12-07T07:59:59;21.67;;;12.50;;
29570;SDS011;16814;52.118;11.436;2022-12-07T08:02:25;25.60;;;13.68;;
29570;SDS011;16814;52.118;11.436;2022-12-07T08:04:54;29.10;;;14.97;;
29570;SDS011;16814;52.118;11.436;2022-12-07T08:07:20;27.57;;;15.53;;
29570;SDS011;16814;52.118;11.436;2022-12-07T08:09:45;31.17;;;16.40;;
29570;SDS011;16814;52.118;11.436;2022-12-07T08:12:11;29.08;;;16.08;;
29570;SDS011;16814;52.118;11.436;2022-12-07T08:14:37;28.37;;;14.17;;
29570;SDS011;16814;52.118;11.436;2022-12-07T08:17:02;22.77;;;12.68;;
29570;SDS011;16814;52.118;11.436;2022-12-07T08:19:28;19.37;;;11.90;;
29570;SDS011;16814;52.118;11.436;2022-12-07T08:21:54;19.58;;;10.70;;
29570;SDS011;16814;52.118;11.436;2022-12-07T08:24:21;15.60;;;8.32;;
29570;SDS011;16814;52.118;11.436;2022-12-07T08:26:46;17.88;;;7.75;;
29570;SDS011;16814;52.118;11.436;2022-12-07T08:29:13;13.95;;;7.40;;
29570;SDS011;16814;52.118;11.436;2022-12-07T08:31:39;13.85;;;6.78;;
29570;SDS011;16814;52.118;11.436;2022-12-07T08:34:04;11.97;;;6.70;;
29570;SDS011;16814;52.118;11.436;2022-12-07T08:36:30;11.47;;;5.83;;
29570;SDS011;16814;52.118;11.436;2022-12-07T08:38:55;9.63;;;5.30;;
29570;SDS011;16814;52.118;11.436;2022-12-07T08:41:21;8.87;;;5.47;;
29570;SDS011;16814;52.118;11.436;2022-12-07T08:43:46;7.40;;;4.80;;
29570;SDS011;16814;52.118;11.436;2022-12-07T08:46:23;8.82;;;4.97;;
29570;SDS011;16814;52.118;11.436;2022-12-07T08:49:08;10.57;;;5.50;;
29570;SDS011;16814;52.118;11.436;2022-12-07T08:51:40;7.60;;;4.13;;
29570;SDS011;16814;52.118;11.436;2022-12-07T08:54:07;7.57;;;3.80;;
29570;SDS011;16814;52.118;11.436;2022-12-07T08:56:35;9.15;;;4.25;;
29570;SDS011;16814;52.118;11.436;2022-12-07T08:59:01;10.25;;;4.65;;
29570;SDS011;16814;52.118;11.436;2022-12-07T09:01:28;9.27;;;4.67;;
29570;SDS011;16814;52.118;11.436;2022-12-07T09:03:54;10.63;;;4.33;;
29570;SDS011;16814;52.118;11.436;2022-12-07T09:06:19;10.10;;;4.55;;
29570;SDS011;16814;52.118;11.436;2022-12-07T09:08:46;9.35;;;4.50;;
29570;SDS011;16814;52.118;11.436;2022-12-07T09:11:16;8.02;;;3.75;;
29570;SDS011;16814;52.118;11.436;2022-12-07T09:13:42;7.23;;;3.60;;
29570;SDS011;16814;52.118;11.436;2022-12-07T09:16:07;7.88;;;3.60;;
29570;SDS011;16814;52.118;11.436;2022-12-07T09:18:33;6.10;;;3.57;;
29570;SDS011;16814;52.118;11.436;2022-12-07T09:20:59;7.47;;;4.55;;
29570;SDS011;16814;52.118;11.436;2022-12-07T09:23:24;8.33;;;4.90;;
29570;SDS011;16814;52.118;11.436;2022-12-07T09:25:50;11.02;;;5.22;;
29570;SDS011;16814;52.118;11.436;2022-12-07T09:28:16;9.47;;;6.13;;
29570;SDS011;16814;52.118;11.436;2022-12-07T09:30:45;10.53;;;6.23;;
29570;SDS011;16814;52.118;11.436;2022-12-07T09:33:11;12.27;;;6.80;;
29570;SDS011;16814;52.118;11.436;2022-12-07T09:35:37;13.65;;;7.13;;
29570;SDS011;16814;52.118;11.436;2022-12-07T09:38:03;13.93;;;8.30;;
29570;SDS011;16814;52.118;11.436;2022-12-07T09:40:28;13.18;;;8.35;;
29570;SDS011;16814;52.118;11.436;2022-12-07T09:42:54;14.00;;;8.67;;
29570;SDS011;16814;52.118;11.436;2022-12-07T09:45:21;19.02;;;9.10;;
29570;SDS011;16814;52.118;11.436;2022-12-07T09:47:58;16.02;;;9.98;;
29570;SDS011;16814;52.118;11.436;2022-12-07T09:50:25;16.53;;;10.83;;
29570;SDS011;16814;52.118;11.436;2022-12-07T09:52:52;16.38;;;10.20;;
29570;SDS011;16814;52.118;11.436;2022-12-07T09:55:26;19.95;;;10.80;;
29570;SDS011;16814;52.118;11.436;2022-12-07T09:57:53;16.38;;;10.60;;
29570;SDS011;16814;52.118;11.436;2022-12-07T10:00:21;21.48;;;11.30;;
29570;SDS011;16814;52.118;11.436;2022-12-07T10:02:58;22.20;;;11.88;;
29570;SDS011;16814;52.118;11.436;2022-12-07T10:08:00;23.85;;;11.68;;
29570;SDS011;16814;52.118;11.436;2022-12-07T10:10:28;21.95;;;11.40;;
29570;SDS011;16814;52.118;11.436;2022-12-07T10:13:00;19.47;;;11.53;;
29570;SDS011;16814;52.118;11.436;2022-12-07T10:18:28;17.80;;;8.83;;
29570;SDS011;16814;52.118;11.436;2022-12-07T10:23:33;12.77;;;6.30;;
29570;SDS011;16814;52.118;11.436;2022-12-07T10:26:17;12.77;;;6.00;;
29570;SDS011;16814;52.118;11.436;2022-12-07T10:28:58;12.25;;;6.05;;
29570;SDS011;16814;52.118;11.436;2022-12-07T10:31:26;14.80;;;7.17;;
29570;SDS011;16814;52.118;11.436;2022-12-07T10:33:53;17.00;;;7.67;;
29570;SDS011;16814;52.118;11.436;2022-12-07T10:36:25;17.83;;;9.15;;
29570;SDS011;16814;52.118;11.436;2022-12-07T10:38:52;21.95;;;10.70;;
29570;SDS011;16814;52.118;11.436;2022-12-07T10:41:28;25.70;;;13.10;;
29570;SDS011;16814;52.118;11.436;2022-12-07T10:43:55;23.90;;;11.73;;
29570;SDS011;16814;52.118;11.436;2022-12-07T10:49:24;23.13;;;10.85;;
29570;SDS011;16814;52.118;11.436;2022-12-07T11:06:19;19.67;;;11.00;;
29570;SDS011;16814;52.118;11.436;2022-12-07T11:09:03;22.67;;;10.15;;
29570;SDS011;16814;52.118;11.436;2022-12-07T11:11:52;18.93;;;10.33;;
29570;SDS011;16814;52.118;11.436;2022-12-07T11:14:43;14.70;;;9.45;;
29570;SDS011;16814;52.118;11.436;2022-12-07T11:17:48;15.93;;;9.15;;
29570;SDS011;16814;52.118;11.436;2022-12-07T11:25:47;16.73;;;9.43;;
29570;SDS011;16814;52.118;11.436;2022-12-07T11:31:23;12.95;;;8.73;;
29570;SDS011;16814;52.118;11.436;2022-12-07T11:34:06;13.50;;;8.13;;
29570;SDS011;16814;52.118;11.436;2022-12-07T11:36:53;14.18;;;7.75;;
29570;SDS011;16814;52.118;11.436;2022-12-07T11:39:29;15.60;;;8.02;;
29570;SDS011;16814;52.118;11.436;2022-12-07T11:42:15;13.95;;;7.43;;
29570;SDS011;16814;52.118;11.436;2022-12-07T11:45:02;13.85;;;7.25;;
29570;SDS011;16814;52.118;11.436;2022-12-07T11:50:51;13.68;;;6.78;;
29570;SDS011;16814;52.118;11.436;2022-12-07T11:53:25;15.55;;;7.72;;
29570;SDS011;16814;52.118;11.436;2022-12-07T11:56:07;15.48;;;8.10;;
29570;SDS011;16814;52.118;11.436;2022-12-07T11:58:45;13.85;;;7.72;;
29570;SDS011;16814;52.118;11.436;2022-12-07T12:02:07;13.07;;;7.50;;
29570;SDS011;16814;52.118;11.436;2022-12-07T12:07:23;18.42;;;7.70;;
29570;SDS011;16814;52.118;11.436;2022-12-07T12:12:56;17.15;;;8.50;;
29570;SDS011;16814;52.118;11.436;2022-12-07T12:16:07;15.33;;;8.17;;
29570;SDS011;16814;52.118;11.436;2022-12-07T12:21:32;15.23;;;8.38;;
29570;SDS011;16814;52.118;11.436;2022-12-07T12:24:02;19.23;;;7.97;;
29570;SDS011;16814;52.118;11.436;2022-12-07T12:26:41;14.77;;;7.90;;
29570;SDS011;16814;52.118;11.436;2022-12-07T12:29:19;16.10;;;7.65;;
29570;SDS011;16814;52.118;11.436;2022-12-07T12:40:54;11.82;;;6.80;;
29570;SDS011;16814;52.118;11.436;2022-12-07T12:54:22;10.13;;;5.80;;
29570;SDS011;16814;52.118;11.436;2022-12-07T13:02:37;11.50;;;3.75;;
29570;SDS011;16814;52.118;11.436;2022-12-07T13:10:39;8.68;;;3.58;;
29570;SDS011;16814;52.118;11.436;2022-12-07T13:15:49;10.13;;;3.40;;
29570;SDS011;16814;52.118;11.436;2022-12-07T13:26:16;16.02;;;5.13;;
29570;SDS011;16814;52.118;11.436;2022-12-07T13:29:18;12.43;;;5.20;;
29570;SDS011;16814;52.118;11.436;2022-12-07T13:32:27;10.63;;;4.95;;
29570;SDS011;16814;52.118;11.436;2022-12-07T13:34:55;8.73;;;4.70;;
29570;SDS011;16814;52.118;11.436;2022-12-07T13:37:25;10.80;;;4.00;;
29570;SDS011;16814;52.118;11.436;2022-12-07T13:40:01;10.10;;;4.28;;
29570;SDS011;16814;52.118;11.436;2022-12-07T13:42:47;9.03;;;3.90;;
29570;SDS011;16814;52.118;11.436;2022-12-07T13:45:26;10.32;;;4.00;;
29570;SDS011;16814;52.118;11.436;2022-12-07T13:48:24;12.65;;;3.72;;
29570;SDS011;16814;52.118;11.436;2022-12-07T13:50:59;11.77;;;3.53;;
29570;SDS011;16814;52.118;11.436;2022-12-07T13:53:28;12.63;;;3.58;;
29570;SDS011;16814;52.118;11.436;2022-12-07T13:56:01;9.90;;;3.33;;
29570;SDS011;16814;52.118;11.436;2022-12-07T13:58:29;11.05;;;3.67;;
29570;SDS011;16814;52.118;11.436;2022-12-07T14:00:58;10.70;;;3.60;;
29570;SDS011;16814;52.118;11.436;2022-12-07T14:03:29;8.18;;;3.22;;
29570;SDS011;16814;52.118;11.436;2022-12-07T14:06:18;8.70;;;2.92;;
29570;SDS011;16814;52.118;11.436;2022-12-07T14:09:05;9.40;;;2.90;;
29570;SDS011;16814;52.118;11.436;2022-12-07T14:11:48;8.77;;;2.60;;
29570;SDS011;16814;52.118;11.436;2022-12-07T14:14:19;6.85;;;2.63;;
29570;SDS011;16814;52.118;11.436;2022-12-07T14:17:21;8.15;;;2.33;;
29570;SDS011;16814;52.118;11.436;2022-12-07T14:19:48;8.93;;;2.47;;
29570;SDS011;16814;52.118;11.436;2022-12-07T14:22:35;10.43;;;2.90;;
29570;SDS011;16814;52.118;11.436;2022-12-07T14:25:20;11.20;;;2.50;;
29570;SDS011;16814;52.118;11.436;2022-12-07T14:27:56;11.73;;;3.57;;
29570;SDS011;16814;52.118;11.436;2022-12-07T14:30:32;9.00;;;3.22;;
29570;SDS011;16814;52.118;11.436;2022-12-07T14:33:03;8.80;;;4.65;;
29570;SDS011;16814;52.118;11.436;2022-12-07T14:35:39;10.27;;;3.83;;
29570;SDS011;16814;52.118;11.436;2022-12-07T14:38:07;12.05;;;5.30;;
29570;SDS011;16814;52.118;11.436;2022-12-07T14:40:34;15.18;;;7.65;;
29570;SDS011;16814;52.118;11.436;2022-12-07T14:43:00;16.67;;;7.27;;
29570;SDS011;16814;52.118;11.436;2022-12-07T14:45:31;10.10;;;5.45;;
29570;SDS011;16814;52.118;11.436;2022-12-07T14:47:56;12.30;;;5.78;;
29570;SDS011;16814;52.118;11.436;2022-12-07T14:50:23;14.23;;;5.90;;
29570;SDS011;16814;52.118;11.436;2022-12-07T14:53:02;12.98;;;5.18;;
29570;SDS011;16814;52.118;11.436;2022-12-07T14:55:43;9.10;;;4.45;;
29570;SDS011;16814;52.118;11.436;2022-12-07T14:58:12;12.00;;;5.13;;
29570;SDS011;16814;52.118;11.436;2022-12-07T15:00:47;12.43;;;5.45;;
29570;SDS011;16814;52.118;11.436;2022-12-07T15:03:15;11.00;;;5.35;;
29570;SDS011;16814;52.118;11.436;2022-12-07T15:05:42;12.07;;;6.35;;
29570;SDS011;16814;52.118;11.436;2022-12-07T15:08:11;11.30;;;5.97;;
29570;SDS011;16814;52.118;11.436;2022-12-07T15:10:39;8.77;;;5.68;;
29570;SDS011;16814;52.118;11.436;2022-12-07T15:13:05;19.08;;;10.32;;
29570;SDS011;16814;52.118;11.436;2022-12-07T15:15:53;14.40;;;6.57;;
29570;SDS011;16814;52.118;11.436;2022-12-07T15:18:20;10.13;;;5.80;;
29570;SDS011;16814;52.118;11.436;2022-12-07T15:20:48;14.02;;;8.82;;
29570;SDS011;16814;52.118;11.436;2022-12-07T15:23:14;18.73;;;10.60;;
29570;SDS011;16814;52.118;11.436;2022-12-07T15:25:43;15.07;;;9.02;;
29570;SDS011;16814;52.118;11.436;2022-12-07T15:28:12;14.23;;;8.95;;
29570;SDS011;16814;52.118;11.436;2022-12-07T15:30:41;12.25;;;6.25;;
29570;SDS011;16814;52.118;11.436;2022-12-07T15:33:08;13.00;;;6.30;;
29570;SDS011;16814;52.118;11.436;2022-12-07T15:35:39;11.73;;;6.32;;
29570;SDS011;16814;52.118;11.436;2022-12-07T15:38:23;15.75;;;6.57;;
29570;SDS011;16814;52.118;11.436;2022-12-07T15:40:53;21.23;;;7.20;;
29570;SDS011;16814;52.118;11.436;2022-12-07T15:43:19;14.57;;;6.60;;
29570;SDS011;16814;52.118;11.436;2022-12-07T15:46:07;17.45;;;6.57;;
29570;SDS011;16814;52.118;11.436;2022-12-07T15:48:33;13.85;;;6.97;;
29570;SDS011;16814;52.118;11.436;2022-12-07T15:51:02;13.40;;;6.67;;
29570;SDS011;16814;52.118;11.436;2022-12-07T15:53:33;18.80;;;8.00;;
29570;SDS011;16814;52.118;11.436;2022-12-07T15:56:00;19.60;;;9.35;;
29570;SDS011;16814;52.118;11.436;2022-12-07T15:58:25;40.05;;;20.35;;
29570;SDS011;16814;52.118;11.436;2022-12-07T16:00:52;47.28;;;19.42;;
29570;SDS011;16814;52.118;11.436;2022-12-07T16:03:19;19.23;;;8.17;;
29570;SDS011;16814;52.118;11.436;2022-12-07T16:05:51;13.30;;;6.07;;
29570;SDS011;16814;52.118;11.436;2022-12-07T16:08:18;14.00;;;5.97;;
29570;SDS011;16814;52.118;11.436;2022-12-07T16:10:44;6.20;;;2.90;;
29570;SDS011;16814;52.118;11.436;2022-12-07T16:13:13;6.53;;;2.57;;
29570;SDS011;16814;52.118;11.436;2022-12-07T16:15:44;10.00;;;3.50;;
29570;SDS011;16814;52.118;11.436;2022-12-07T16:18:11;16.05;;;6.43;;
29570;SDS011;16814;52.118;11.436;2022-12-07T16:20:37;13.10;;;5.35;;
29570;SDS011;16814;52.118;11.436;2022-12-07T16:23:04;8.32;;;4.50;;
29570;SDS011;16814;52.118;11.436;2022-12-07T16:25:42;10.23;;;4.57;;
29570;SDS011;16814;52.118;11.436;2022-12-07T16:28:10;10.07;;;4.20;;
29570;SDS011;16814;52.118;11.436;2022-12-07T16:30:37;11.90;;;4.38;;
29570;SDS011;16814;52.118;11.436;2022-12-07T16:33:02;8.80;;;4.73;;
29570;SDS011;16814;52.118;11.436;2022-12-07T16:35:29;13.98;;;4.85;;
29570;SDS011;16814;52.118;11.436;2022-12-07T16:37:56;11.82;;;4.05;;